createdAt,value
2023-05-24T00:02:14.156Z,7.30
2023-05-24T00:06:17.136Z,6.53
2023-05-24T00:10:19.433Z,6.47
2023-05-24T00:14:21.788Z,6.55
2023-05-24T00:18:24.523Z,6.55
2023-05-24T00:22:26.879Z,7.00
2023-05-24T00:26:29.178Z,6.95
2023-05-24T00:30:31.568Z,7.20
2023-05-24T00:34:33.914Z,7.07
2023-05-24T00:38:36.180Z,7.07
2023-05-24T00:42:38.676Z,7.57
2023-05-24T00:46:41.663Z,6.90
2023-05-24T00:50:44.579Z,6.97
2023-05-24T00:54:46.770Z,6.72
2023-05-24T00:58:50.914Z,6.90
2023-05-24T01:02:54.950Z,7.00
2023-05-24T01:07:17.112Z,6.60
2023-05-24T01:11:40.055Z,6.43
2023-05-24T01:16:18.096Z,6.82
2023-05-24T01:20:23.583Z,7.28
2023-05-24T01:24:30.524Z,7.00
2023-05-24T01:28:35.318Z,6.03
2023-05-24T01:32:38.934Z,6.75
2023-05-24T01:36:41.282Z,6.97
2023-05-24T01:40:45.062Z,7.28
2023-05-24T01:45:06.225Z,7.20
2023-05-24T01:49:14.136Z,7.10
2023-05-24T01:53:19.565Z,7.17
2023-05-24T01:57:23.286Z,6.22
2023-05-24T02:01:27.036Z,7.07
2023-05-24T02:05:29.402Z,7.25
2023-05-24T02:09:31.465Z,7.38
2023-05-24T02:13:33.516Z,6.78
2023-05-24T02:17:35.762Z,6.80
2023-05-24T02:21:38.481Z,5.88
2023-05-24T02:25:40.882Z,7.30
2023-05-24T02:29:43.251Z,6.68
2023-05-24T02:33:45.361Z,6.68
2023-05-24T02:37:47.480Z,6.55
2023-05-24T02:41:49.460Z,7.70
2023-05-24T02:45:51.738Z,6.63
2023-05-24T02:49:54.582Z,7.20
2023-05-24T02:53:56.637Z,7.28
2023-05-24T02:57:58.647Z,6.45
2023-05-24T03:02:01.012Z,6.00
2023-05-24T03:06:03.477Z,7.53
2023-05-24T03:10:06.432Z,6.50
2023-05-24T03:14:10.906Z,6.60
2023-05-24T03:18:15.812Z,6.10
2023-05-24T03:22:20.077Z,6.53
2023-05-24T03:26:22.134Z,6.55
2023-05-24T03:30:24.284Z,6.63
2023-05-24T03:34:31.463Z,6.60
2023-05-24T03:38:33.789Z,6.93
2023-05-24T03:42:36.165Z,7.03
2023-05-24T03:46:38.283Z,6.00
2023-05-24T03:50:40.557Z,6.47
2023-05-24T03:54:42.856Z,6.63
2023-05-24T03:58:46.171Z,5.78
2023-05-24T04:02:48.273Z,6.70
2023-05-24T04:06:50.937Z,6.55
2023-05-24T04:10:53.004Z,6.43
2023-05-24T04:14:55.287Z,6.20
2023-05-24T04:18:57.958Z,6.13
2023-05-24T04:23:00.271Z,5.82
2023-05-24T04:27:02.506Z,5.97
2023-05-24T04:31:07.599Z,5.97
2023-05-24T04:35:10.266Z,5.72
2023-05-24T04:39:13.133Z,5.07
2023-05-24T04:43:15.254Z,5.63
2023-05-24T04:47:17.544Z,5.80
2023-05-24T04:51:19.892Z,5.63
2023-05-24T04:55:21.994Z,6.45
2023-05-24T04:59:24.854Z,5.03
2023-05-24T05:03:26.985Z,5.85
2023-05-24T05:07:29.151Z,5.55
2023-05-24T05:11:31.568Z,6.30
2023-05-24T05:15:34.360Z,5.68
2023-05-24T05:19:36.420Z,5.43
2023-05-24T05:23:39.828Z,5.15
2023-05-24T05:27:41.957Z,6.18
2023-05-24T05:31:44.133Z,5.70
2023-05-24T05:35:46.165Z,5.70
2023-05-24T05:39:48.174Z,6.18
2023-05-24T05:43:50.229Z,5.68
2023-05-24T05:47:52.425Z,5.55
2023-05-24T05:51:58.123Z,5.68
2023-05-24T05:56:00.532Z,5.07
2023-05-24T06:00:02.665Z,5.65
2023-05-24T06:04:14.229Z,4.75
2023-05-24T06:08:16.702Z,5.60
2023-05-24T06:12:18.860Z,4.93
2023-05-24T06:16:21.346Z,5.55
2023-05-24T06:20:23.703Z,5.03
2023-05-24T06:24:26.040Z,4.90
2023-05-24T06:28:28.205Z,5.22
2023-05-24T06:32:30.593Z,5.18
2023-05-24T06:36:35.856Z,5.30
2023-05-24T06:40:37.886Z,5.95
2023-05-24T06:44:39.928Z,5.40
2023-05-24T06:48:42.542Z,5.13
2023-05-24T06:52:44.596Z,4.80
2023-05-24T06:56:46.742Z,5.57
2023-05-24T07:00:50.217Z,4.85
2023-05-24T07:04:52.780Z,5.88
2023-05-24T07:08:54.956Z,4.68
2023-05-24T07:12:57.003Z,4.95
2023-05-24T07:16:59.907Z,4.90
2023-05-24T07:21:02.535Z,4.78
2023-05-24T07:25:05.492Z,5.05
2023-05-24T07:29:07.696Z,4.38
2023-05-24T07:33:09.949Z,4.88
2023-05-24T07:37:12.007Z,4.88
2023-05-24T07:41:14.526Z,4.68
2023-05-24T07:45:16.662Z,4.97
2023-05-24T07:49:18.821Z,4.22
2023-05-24T07:53:21.023Z,5.03
2023-05-24T07:57:23.724Z,4.50
2023-05-24T08:01:25.789Z,5.10
2023-05-24T08:05:28.269Z,4.75
2023-05-24T08:09:33.768Z,5.03
2023-05-24T08:13:35.951Z,5.03
2023-05-24T08:17:39.322Z,5.07
2023-05-24T08:21:42.432Z,4.90
2023-05-24T08:25:45.241Z,4.75
2023-05-24T08:29:47.787Z,4.30
2023-05-24T08:33:51.077Z,4.53
2023-05-24T08:37:53.312Z,4.55
2023-05-24T08:42:08.730Z,4.47
2023-05-24T08:46:12.788Z,4.78
2023-05-24T08:50:15.323Z,4.28
2023-05-24T08:54:19.166Z,5.45
2023-05-24T08:58:21.287Z,4.47
2023-05-24T09:02:24.334Z,5.03
2023-05-24T09:06:26.910Z,5.13
2023-05-24T09:10:45.563Z,4.82
2023-05-24T09:14:52.151Z,4.93
2023-05-24T09:18:54.354Z,4.93
2023-05-24T09:22:58.407Z,4.85
2023-05-24T09:27:06.696Z,5.47
2023-05-24T09:31:08.972Z,4.10
2023-05-24T09:35:11.159Z,4.90
2023-05-24T09:39:13.525Z,3.95
2023-05-24T09:43:15.650Z,4.18
2023-05-24T09:47:17.732Z,3.85
2023-05-24T09:51:20.048Z,3.80
2023-05-24T09:55:22.505Z,4.18
2023-05-24T09:59:24.607Z,3.92
2023-05-24T10:03:27.414Z,5.13
2023-05-24T10:07:29.704Z,4.57
2023-05-24T10:11:33.630Z,3.95
2023-05-24T10:15:36.181Z,5.15
2023-05-24T10:19:38.251Z,4.07
2023-05-24T10:23:44.815Z,3.75
2023-05-24T10:27:49.454Z,4.18
2023-05-24T10:31:53.340Z,3.90
2023-05-24T10:35:56.799Z,3.75
2023-05-24T10:40:00.855Z,3.95
2023-05-24T10:44:11.180Z,4.07
2023-05-24T10:48:13.646Z,4.20
2023-05-24T10:52:15.964Z,4.07
2023-05-24T10:56:20.954Z,3.72
2023-05-24T11:04:36.794Z,3.85
2023-05-24T11:08:43.794Z,3.25
2023-05-24T11:12:45.955Z,3.47
2023-05-24T11:16:51.276Z,3.83
2023-05-24T11:20:53.867Z,4.85
2023-05-24T11:24:57.505Z,3.88
2023-05-24T11:29:04.127Z,5.63
2023-05-24T11:33:22.609Z,3.87
2023-05-24T11:37:38.512Z,4.75
2023-05-24T11:41:47.816Z,6.40
2023-05-24T11:45:51.909Z,5.75
2023-05-24T11:49:54.204Z,6.13
2023-05-24T11:53:57.910Z,7.38
2023-05-24T11:58:02.027Z,6.53
2023-05-24T12:02:06.057Z,6.40
2023-05-24T12:06:08.292Z,6.45
2023-05-24T12:10:12.272Z,6.13
2023-05-24T12:14:17.203Z,6.53
2023-05-24T12:18:20.681Z,5.82
2023-05-24T12:22:28.459Z,6.63
2023-05-24T12:26:30.693Z,6.30
2023-05-24T12:30:32.902Z,4.97
2023-05-24T12:34:34.936Z,5.20
2023-05-24T12:38:37.275Z,6.25
2023-05-24T12:42:39.402Z,5.93
2023-05-24T12:46:41.570Z,5.35
2023-05-24T12:50:44.025Z,5.38
2023-05-24T12:54:46.392Z,5.72
2023-05-24T12:58:48.595Z,5.10
2023-05-24T13:02:53.077Z,5.70
2023-05-24T13:06:55.613Z,5.05
2023-05-24T13:10:57.844Z,4.72
2023-05-24T13:14:59.855Z,3.75
2023-05-24T13:19:01.916Z,4.10
2023-05-24T13:23:04.620Z,3.65
2023-05-24T13:27:07.696Z,3.25
2023-05-24T13:31:09.749Z,3.95
2023-05-24T13:35:11.998Z,4.15
2023-05-24T13:39:16.603Z,4.45
2023-05-24T13:43:19.162Z,5.38
2023-05-24T13:47:35.201Z,4.72
2023-05-24T13:51:42.209Z,4.55
2023-05-24T13:55:44.263Z,4.78
2023-05-24T13:59:46.415Z,4.90
2023-05-24T14:03:48.550Z,4.78
2023-05-24T14:07:50.789Z,4.47
2023-05-24T14:11:53.404Z,4.47
2023-05-24T14:15:55.731Z,4.50
2023-05-24T14:19:57.919Z,4.90
2023-05-24T14:24:00.240Z,4.65
2023-05-24T14:28:03.790Z,4.82
2023-05-24T14:32:06.152Z,5.03
2023-05-24T14:36:09.141Z,5.20
2023-05-24T14:40:12.154Z,4.55
2023-05-24T14:44:14.194Z,4.57
2023-05-24T14:48:16.961Z,4.47
2023-05-24T14:52:19.197Z,4.45
2023-05-24T14:56:22.007Z,4.13
2023-05-24T15:00:26.256Z,4.20
2023-05-24T15:04:30.358Z,3.80
2023-05-24T15:08:33.645Z,4.20
2023-05-24T15:12:35.719Z,4.15
2023-05-24T15:16:37.852Z,4.13
2023-05-24T15:20:40.162Z,4.28
2023-05-24T15:24:42.218Z,3.63
2023-05-24T15:28:44.446Z,4.85
2023-05-24T15:32:46.832Z,4.97
2023-05-24T15:36:49.148Z,4.20
2023-05-24T15:40:51.458Z,5.05
2023-05-24T15:44:53.795Z,5.18
2023-05-24T15:48:55.879Z,4.55
2023-05-24T15:52:58.188Z,5.10
2023-05-24T15:57:03.669Z,5.38
2023-05-24T16:01:05.941Z,5.28
2023-05-24T16:05:08.337Z,5.10
2023-05-24T16:09:10.564Z,5.75
2023-05-24T16:13:12.679Z,5.40
2023-05-24T16:17:15.466Z,10.65
2023-05-24T16:21:17.823Z,11.48
2023-05-24T16:25:19.922Z,13.57
2023-05-24T16:29:22.253Z,13.75
2023-05-24T16:33:25.414Z,13.20
2023-05-24T16:37:27.477Z,12.82
2023-05-24T16:41:35.151Z,15.02
2023-05-24T16:45:37.508Z,21.83
2023-05-24T16:49:39.605Z,21.27
2023-05-24T16:53:41.925Z,17.48
2023-05-24T16:57:44.108Z,13.50
2023-05-24T17:01:48.686Z,14.00
2023-05-24T17:05:53.264Z,16.88
2023-05-24T17:09:55.822Z,23.42
2023-05-24T17:13:57.907Z,15.57
2023-05-24T17:17:59.680Z,14.95
2023-05-24T17:22:04.209Z,21.65
2023-05-24T17:26:08.103Z,20.13
2023-05-24T17:30:10.680Z,40.40
2023-05-24T17:34:15.777Z,15.48
2023-05-24T17:38:18.619Z,18.88
2023-05-24T17:42:21.249Z,13.00
2023-05-24T17:46:23.785Z,20.20
2023-05-24T17:50:25.923Z,12.43
2023-05-24T17:54:28.243Z,13.60
2023-05-24T17:58:32.802Z,14.85
2023-05-24T18:02:34.953Z,19.67
2023-05-24T18:06:37.561Z,16.50
2023-05-24T18:10:40.523Z,14.13
2023-05-24T18:14:44.269Z,15.68
2023-05-24T18:18:46.694Z,14.90
2023-05-24T18:22:49.984Z,15.80
2023-05-24T18:26:52.825Z,18.08
2023-05-24T18:30:54.921Z,16.98
2023-05-24T18:34:57.144Z,15.05
2023-05-24T18:38:59.525Z,23.85
2023-05-24T18:43:02.476Z,29.70
2023-05-24T18:47:05.678Z,26.52
2023-05-24T18:51:08.044Z,18.98
2023-05-24T18:55:10.831Z,18.00
2023-05-24T18:59:14.301Z,16.85
2023-05-24T19:03:16.979Z,18.40
2023-05-24T19:07:20.103Z,16.05
2023-05-24T19:11:23.056Z,16.00
2023-05-24T19:15:25.847Z,14.50
2023-05-24T19:19:32.104Z,14.13
2023-05-24T19:23:34.221Z,15.18
2023-05-24T19:27:39.819Z,14.02
2023-05-24T19:31:49.060Z,14.23
2023-05-24T19:35:51.597Z,14.45
2023-05-24T19:39:53.979Z,16.75
2023-05-24T19:44:00.040Z,15.48
2023-05-24T19:48:04.988Z,15.98
2023-05-24T19:52:07.180Z,17.02
2023-05-24T19:56:10.036Z,17.60
2023-05-24T20:00:13.910Z,16.50
2023-05-24T20:04:17.068Z,16.95
2023-05-24T20:08:21.660Z,17.65
2023-05-24T20:12:24.262Z,17.30
2023-05-24T20:16:27.074Z,18.52
2023-05-24T20:20:29.806Z,19.08
2023-05-24T20:24:32.792Z,17.25
2023-05-24T20:28:35.391Z,18.55
2023-05-24T20:32:37.736Z,18.30
2023-05-24T20:36:43.333Z,17.05
2023-05-24T20:40:46.411Z,20.23
2023-05-24T20:44:49.111Z,20.58
2023-05-24T20:48:51.621Z,19.33
2023-05-24T20:52:53.839Z,18.63
2023-05-24T20:56:56.177Z,19.60
2023-05-24T21:00:59.195Z,19.27
2023-05-24T21:05:01.829Z,17.88
2023-05-24T21:09:03.950Z,17.52
2023-05-24T21:13:07.020Z,18.35
2023-05-24T21:17:09.299Z,20.20
2023-05-24T21:21:11.456Z,19.50
2023-05-24T21:25:13.555Z,19.50
2023-05-24T21:29:15.863Z,19.88
2023-05-24T21:33:17.992Z,19.52
2023-05-24T21:37:20.269Z,17.60
2023-05-24T21:41:23.927Z,20.30
2023-05-24T21:45:26.097Z,19.77
2023-05-24T21:49:28.373Z,20.30
2023-05-24T21:53:30.552Z,18.60
2023-05-24T21:57:32.790Z,19.27
2023-05-24T22:01:35.032Z,19.13
2023-05-24T22:05:37.350Z,17.60
2023-05-24T22:09:39.563Z,20.65
2023-05-24T22:13:42.157Z,20.55
2023-05-24T22:17:44.356Z,20.08
2023-05-24T22:21:50.197Z,21.23
2023-05-24T22:25:52.559Z,21.70
2023-05-24T22:29:55.777Z,20.55
2023-05-24T22:34:01.259Z,21.75
2023-05-24T22:38:03.612Z,21.90
2023-05-24T22:42:05.798Z,21.23
2023-05-24T22:46:09.948Z,21.10
2023-05-24T22:50:14.031Z,21.58
2023-05-24T22:54:19.601Z,24.55
2023-05-24T22:58:23.175Z,22.73
2023-05-24T23:02:27.033Z,22.98
2023-05-24T23:06:31.633Z,21.40
2023-05-24T23:10:33.820Z,22.55
2023-05-24T23:14:41.500Z,22.58
2023-05-24T23:18:44.533Z,24.00
2023-05-24T23:22:46.937Z,24.88
2023-05-24T23:26:49.291Z,23.10
2023-05-24T23:30:51.628Z,26.35
2023-05-24T23:34:53.852Z,24.88
2023-05-24T23:38:56.110Z,27.98
2023-05-24T23:42:58.316Z,25.95
2023-05-24T23:47:01.982Z,25.33
2023-05-24T23:51:04.609Z,26.25
2023-05-24T23:55:07.621Z,27.95
2023-05-24T23:59:10.441Z,29.73
